createdAt,value
2019-05-14T00:01:12.696Z,2.70
2019-05-14T00:03:43.766Z,2.57
2019-05-14T00:06:15.603Z,3.03
2019-05-14T00:08:46.668Z,2.40
2019-05-14T00:11:21.924Z,2.70
2019-05-14T00:13:53.096Z,1.97
2019-05-14T00:16:26.782Z,2.43
2019-05-14T00:18:57.792Z,2.50
2019-05-14T00:21:28.917Z,2.50
2019-05-14T00:24:01.856Z,2.50
2019-05-14T00:26:33.087Z,3.30
2019-05-14T00:29:04.265Z,1.80
2019-05-14T00:31:35.531Z,2.60
2019-05-14T00:34:06.596Z,1.93
2019-05-14T00:36:37.640Z,2.30
2019-05-14T00:39:11.039Z,1.93
2019-05-14T00:41:44.613Z,2.07
2019-05-14T00:44:21.377Z,1.93
2019-05-14T00:46:51.666Z,2.20
2019-05-14T00:49:25.885Z,2.17
2019-05-14T00:51:56.962Z,2.13
2019-05-14T00:54:32.166Z,2.47
2019-05-14T00:57:03.252Z,2.37
2019-05-14T00:59:37.266Z,2.20
2019-05-14T01:02:11.406Z,2.10
2019-05-14T01:04:43.247Z,3.07
2019-05-14T01:07:17.281Z,1.90
2019-05-14T01:09:52.099Z,1.53
2019-05-14T01:12:22.643Z,2.20
2019-05-14T01:15:07.204Z,2.07
2019-05-14T01:17:28.065Z,2.00
2019-05-14T01:19:59.239Z,2.20
2019-05-14T01:22:31.645Z,1.80
2019-05-14T01:25:02.859Z,2.50
2019-05-14T01:27:34.413Z,1.47
2019-05-14T01:30:12.498Z,1.77
2019-05-14T01:32:44.587Z,1.67
2019-05-14T01:35:15.649Z,1.90
2019-05-14T01:37:46.785Z,1.53
2019-05-14T01:40:17.863Z,1.80
2019-05-14T01:42:48.975Z,1.60
2019-05-14T01:45:25.144Z,1.80
2019-05-14T01:47:52.838Z,1.87
2019-05-14T01:50:41.422Z,2.10
2019-05-14T01:53:12.667Z,1.87
2019-05-14T01:55:43.796Z,1.80
2019-05-14T01:58:15.039Z,2.00
2019-05-14T02:00:48.825Z,2.03
2019-05-14T02:03:22.263Z,2.00
2019-05-14T02:05:53.299Z,2.07
2019-05-14T02:08:25.794Z,2.23
2019-05-14T02:10:56.841Z,1.70
2019-05-14T02:13:28.285Z,2.40
2019-05-14T02:16:01.462Z,2.87
2019-05-14T02:18:33.075Z,2.20
2019-05-14T02:21:04.114Z,2.10
2019-05-14T02:23:35.206Z,2.03
2019-05-14T02:26:06.390Z,2.03
2019-05-14T02:28:37.497Z,2.27
2019-05-14T02:31:09.397Z,2.57
2019-05-14T02:33:41.531Z,2.27
2019-05-14T02:36:14.125Z,2.40
2019-05-14T02:38:45.279Z,2.33
2019-05-14T02:41:19.647Z,2.17
2019-05-14T02:43:51.013Z,2.20
2019-05-14T02:46:22.293Z,2.53
2019-05-14T02:48:53.422Z,2.47
2019-05-14T02:51:24.450Z,1.83
2019-05-14T02:53:55.543Z,2.40
2019-05-14T02:56:29.331Z,2.30
2019-05-14T02:59:01.290Z,2.43
2019-05-14T03:01:32.213Z,2.30
2019-05-14T03:04:03.551Z,2.30
2019-05-14T03:06:39.282Z,2.40
2019-05-14T03:09:09.687Z,2.20
2019-05-14T03:11:41.111Z,2.40
2019-05-14T03:14:12.297Z,2.20
2019-05-14T03:16:49.280Z,2.40
2019-05-14T03:19:19.825Z,2.10
2019-05-14T03:21:50.952Z,2.47
2019-05-14T03:24:22.870Z,2.40
2019-05-14T03:26:53.969Z,2.23
2019-05-14T03:29:30.329Z,1.90
2019-05-14T03:32:03.146Z,2.00
2019-05-14T03:34:33.665Z,2.23
2019-05-14T03:37:05.040Z,1.57
2019-05-14T03:39:39.728Z,2.10
2019-05-14T03:42:10.946Z,2.33
2019-05-14T03:44:42.020Z,2.20
2019-05-14T03:47:20.283Z,1.67
2019-05-14T03:49:49.864Z,1.90
2019-05-14T03:52:21.225Z,1.80
2019-05-14T03:54:53.885Z,1.90
2019-05-14T03:57:29.164Z,2.27
2019-05-14T04:00:00.188Z,2.60
2019-05-14T04:02:33.126Z,2.23
2019-05-14T04:05:09.353Z,2.03
2019-05-14T04:11:34.970Z,2.10
2019-05-14T04:14:09.574Z,2.27
2019-05-14T04:16:59.549Z,1.40
2019-05-14T04:19:18.832Z,1.83
2019-05-14T04:21:51.689Z,1.87
2019-05-14T04:24:24.049Z,1.60
2019-05-14T04:27:06.809Z,1.50
2019-05-14T04:29:30.897Z,1.90
2019-05-14T04:32:03.550Z,1.77
2019-05-14T04:34:34.846Z,1.92
2019-05-14T04:37:12.908Z,2.20
2019-05-14T04:43:41.458Z,1.85
2019-05-14T04:46:13.988Z,1.67
2019-05-14T04:48:50.062Z,1.77
2019-05-14T04:51:20.827Z,1.90
2019-05-14T04:53:53.356Z,1.82
2019-05-14T04:56:31.430Z,1.77
2019-05-14T04:59:04.396Z,1.65
2019-05-14T05:01:35.436Z,2.25
2019-05-14T05:04:09.373Z,1.60
2019-05-14T05:06:40.711Z,1.65
2019-05-14T05:09:14.994Z,1.97
2019-05-14T05:11:52.284Z,2.15
2019-05-14T05:14:23.991Z,1.60
2019-05-14T05:16:59.720Z,1.80
2019-05-14T05:19:31.101Z,1.22
2019-05-14T05:22:02.134Z,1.40
2019-05-14T05:24:33.235Z,1.50
2019-05-14T05:27:09.306Z,1.70
2019-05-14T05:29:53.351Z,2.10
2019-05-14T05:32:30.036Z,1.70
2019-05-14T05:35:03.110Z,1.97
2019-05-14T05:37:38.454Z,1.47
2019-05-14T05:40:09.879Z,1.67
2019-05-14T05:42:40.931Z,1.40
2019-05-14T05:45:13.010Z,1.57
2019-05-14T05:47:55.311Z,2.00
2019-05-14T05:50:20.281Z,1.67
2019-05-14T05:52:53.800Z,1.67
2019-05-14T05:55:24.211Z,1.93
2019-05-14T05:57:58.814Z,2.03
2019-05-14T06:00:44.913Z,1.92
2019-05-14T06:03:15.978Z,1.35
2019-05-14T06:05:49.389Z,1.65
2019-05-14T06:08:21.216Z,1.65
2019-05-14T06:10:54.629Z,1.57
2019-05-14T06:13:28.833Z,1.22
2019-05-14T06:16:00.012Z,1.70
2019-05-14T06:18:34.191Z,1.20
2019-05-14T06:21:03.897Z,2.35
2019-05-14T06:23:38.554Z,2.72
2019-05-14T06:26:11.849Z,4.17
2019-05-14T06:28:42.997Z,2.47
2019-05-14T06:31:18.962Z,1.92
2019-05-14T06:33:50.038Z,1.87
2019-05-14T06:36:21.165Z,1.80
2019-05-14T06:38:52.268Z,1.85
2019-05-14T06:41:23.461Z,2.00
2019-05-14T06:43:54.898Z,2.00
2019-05-14T06:46:28.287Z,1.77
2019-05-14T06:48:59.240Z,2.58
2019-05-14T06:51:31.495Z,1.87
2019-05-14T06:54:09.316Z,1.75
2019-05-14T06:56:41.307Z,2.33
2019-05-14T06:59:13.377Z,1.55
2019-05-14T07:01:44.473Z,1.73
2019-05-14T07:04:18.053Z,2.53
2019-05-14T07:06:49.942Z,1.47
2019-05-14T07:09:25.496Z,1.73
2019-05-14T07:12:01.339Z,1.73
2019-05-14T07:14:32.999Z,1.40
2019-05-14T07:17:04.666Z,1.70
2019-05-14T07:19:38.298Z,1.73
2019-05-14T07:22:09.098Z,1.40
2019-05-14T07:24:42.673Z,2.65
2019-05-14T07:27:14.691Z,1.60
2019-05-14T07:29:49.407Z,1.60
2019-05-14T07:32:21.746Z,1.87
2019-05-14T07:34:54.303Z,1.50
2019-05-14T07:37:25.390Z,1.90
2019-05-14T07:39:57.995Z,2.30
2019-05-14T07:42:30.122Z,2.25
2019-05-14T07:45:01.344Z,1.70
2019-05-14T07:47:49.351Z,1.90
2019-05-14T07:50:30.277Z,1.75
2019-05-14T07:53:08.982Z,1.30
2019-05-14T07:55:49.043Z,1.22
2019-05-14T07:58:23.567Z,1.40
2019-05-14T08:00:58.574Z,1.40
2019-05-14T08:03:32.537Z,1.70
2019-05-14T08:06:11.463Z,1.60
2019-05-14T08:12:40.233Z,3.07
2019-05-14T08:16:13.825Z,1.40
2019-05-14T08:18:53.046Z,1.50
2019-05-14T08:21:48.100Z,1.60
2019-05-14T08:28:35.131Z,2.37
2019-05-14T08:31:21.161Z,2.90
2019-05-14T08:33:54.919Z,1.17
2019-05-14T08:36:26.072Z,2.15
2019-05-14T08:39:00.375Z,1.60
2019-05-14T08:44:42.111Z,3.50
2019-05-14T08:47:25.997Z,1.75
2019-05-14T08:50:21.569Z,1.63
2019-05-14T08:55:38.579Z,1.62
2019-05-14T08:58:19.893Z,1.87
2019-05-14T09:00:42.807Z,1.60
2019-05-14T09:03:14.122Z,1.80
2019-05-14T09:05:45.459Z,2.15
2019-05-14T09:08:18.952Z,1.70
2019-05-14T09:10:51.257Z,1.82
2019-05-14T09:13:23.837Z,1.80
2019-05-14T09:15:55.080Z,1.77
2019-05-14T09:18:30.402Z,1.50
2019-05-14T09:21:01.589Z,2.02
2019-05-14T09:23:33.991Z,1.43
2019-05-14T09:26:05.981Z,1.60
2019-05-14T09:28:39.545Z,1.50
2019-05-14T09:31:10.861Z,1.50
2019-05-14T09:33:41.983Z,1.60
2019-05-14T09:36:24.141Z,1.50
2019-05-14T09:38:58.342Z,1.63
2019-05-14T09:41:31.303Z,2.20
2019-05-14T09:44:13.393Z,4.50
2019-05-14T09:46:45.380Z,1.90
2019-05-14T09:49:22.844Z,1.80
2019-05-14T09:51:54.961Z,1.70
2019-05-14T09:54:28.790Z,2.12
2019-05-14T09:57:00.081Z,1.80
2019-05-14T09:59:31.181Z,2.00
2019-05-14T10:02:02.479Z,1.93
2019-05-14T10:04:35.439Z,1.70
2019-05-14T10:07:10.558Z,1.60
2019-05-14T10:09:43.709Z,1.43
2019-05-14T10:12:14.842Z,1.50
2019-05-14T10:14:49.077Z,1.60
2019-05-14T10:17:20.211Z,1.40
2019-05-14T10:19:52.777Z,1.50
2019-05-14T10:22:28.578Z,2.20
2019-05-14T10:25:09.087Z,1.73
2019-05-14T10:27:59.059Z,1.70
2019-05-14T10:30:31.759Z,1.60
2019-05-14T10:33:10.796Z,1.80
2019-05-14T10:35:39.084Z,1.50
2019-05-14T10:38:13.288Z,1.63
2019-05-14T10:40:50.264Z,1.43
2019-05-14T10:43:20.542Z,1.80
2019-05-14T10:45:52.784Z,1.50
2019-05-14T10:48:26.296Z,1.50
2019-05-14T10:51:03.317Z,1.20
2019-05-14T10:53:35.690Z,1.60
2019-05-14T10:56:09.801Z,1.40
2019-05-14T10:58:41.016Z,1.77
2019-05-14T11:01:15.457Z,1.83
2019-05-14T11:03:48.413Z,1.60
2019-05-14T11:06:19.619Z,1.70
2019-05-14T11:08:53.154Z,1.50
2019-05-14T11:11:29.061Z,3.60
2019-05-14T11:14:03.196Z,1.53
2019-05-14T11:16:41.459Z,1.80
2019-05-14T11:19:09.643Z,1.67
2019-05-14T11:21:52.875Z,1.80
2019-05-14T11:24:29.699Z,1.83
2019-05-14T11:27:07.994Z,1.90
2019-05-14T11:29:50.327Z,1.63
2019-05-14T11:32:24.927Z,1.77
2019-05-14T11:34:59.170Z,1.70
2019-05-14T11:37:31.338Z,1.73
2019-05-14T11:40:11.308Z,1.90
2019-05-14T11:43:39.024Z,1.80
2019-05-14T11:46:47.736Z,1.87
2019-05-14T11:49:10.323Z,1.50
2019-05-14T11:52:06.157Z,1.53
2019-05-14T11:54:42.985Z,1.33
2019-05-14T12:01:10.855Z,1.30
2019-05-14T12:10:42.865Z,1.60
2019-05-14T12:13:14.504Z,1.67
2019-05-14T12:15:51.292Z,1.40
2019-05-14T12:18:21.072Z,1.50
2019-05-14T12:24:31.837Z,1.40
2019-05-14T12:27:28.620Z,1.40
2019-05-14T12:29:44.606Z,1.70
2019-05-14T12:32:34.788Z,1.40
2019-05-14T13:04:20.107Z,1.40
2019-05-14T13:29:13.960Z,1.50
2019-05-14T14:12:40.541Z,1.53
2019-05-14T14:45:21.753Z,1.50
2019-05-14T15:45:15.234Z,2.77
2019-05-14T16:02:00.004Z,2.20
2019-05-14T16:04:38.809Z,1.80
2019-05-14T16:11:56.330Z,2.43
2019-05-14T16:13:42.821Z,2.33
2019-05-14T16:23:18.791Z,2.13
2019-05-14T16:26:11.324Z,2.90
2019-05-14T16:32:19.203Z,3.20
2019-05-14T16:38:48.166Z,2.70
2019-05-14T17:03:12.618Z,2.20
2019-05-14T17:09:49.297Z,3.10
2019-05-14T17:12:23.199Z,2.20
2019-05-14T17:14:54.331Z,3.80
2019-05-14T17:17:33.047Z,3.43
2019-05-14T17:24:11.557Z,3.80
2019-05-14T17:26:49.588Z,3.03
2019-05-14T17:29:21.691Z,3.13
2019-05-14T17:31:54.235Z,2.60
2019-05-14T17:34:30.234Z,3.00
2019-05-14T17:37:02.930Z,2.97
2019-05-14T17:39:38.733Z,2.03
2019-05-14T17:42:12.739Z,5.80
2019-05-14T17:44:43.930Z,4.43
2019-05-14T17:47:15.096Z,4.80
2019-05-14T17:49:50.000Z,5.87
2019-05-14T17:52:33.265Z,4.60
2019-05-14T18:39:21.250Z,3.37
2019-05-14T18:42:19.842Z,2.80
2019-05-14T18:44:49.811Z,3.17
2019-05-14T18:58:26.189Z,2.77
2019-05-14T19:01:15.884Z,3.53
2019-05-14T19:07:48.816Z,5.03
2019-05-14T19:14:15.153Z,6.07
2019-05-14T19:24:22.120Z,4.00
2019-05-14T19:26:53.301Z,2.67
2019-05-14T19:29:24.534Z,3.37
2019-05-14T19:31:59.359Z,3.43
2019-05-14T19:34:30.596Z,3.80
2019-05-14T19:37:04.491Z,3.90
2019-05-14T19:39:42.593Z,3.00
2019-05-14T19:42:22.422Z,3.87
2019-05-14T19:44:53.662Z,4.90
2019-05-14T19:47:25.395Z,4.30
2019-05-14T19:50:00.009Z,3.30
2019-05-14T19:52:39.566Z,3.33
2019-05-14T19:55:15.880Z,3.67
2019-05-14T20:01:50.816Z,3.33
2019-05-14T20:04:29.407Z,4.43
2019-05-14T20:15:27.578Z,2.77
2019-05-14T20:18:01.661Z,2.57
2019-05-14T20:20:32.838Z,3.93
2019-05-14T20:23:03.880Z,3.43
2019-05-14T20:25:36.009Z,3.37
2019-05-14T20:28:08.775Z,3.03
2019-05-14T20:30:39.998Z,3.47
2019-05-14T20:33:12.694Z,3.03
2019-05-14T20:35:44.111Z,3.27
2019-05-14T20:38:15.246Z,3.10
2019-05-14T20:40:48.489Z,3.33
2019-05-14T20:43:21.672Z,2.90
2019-05-14T20:45:53.579Z,2.63
2019-05-14T20:48:24.626Z,3.27
2019-05-14T20:50:57.858Z,3.13
2019-05-14T20:53:30.074Z,3.87
2019-05-14T20:56:01.215Z,3.10
2019-05-14T20:58:32.248Z,3.13
2019-05-14T21:01:11.118Z,3.10
2019-05-14T21:03:40.521Z,2.53
2019-05-14T21:06:11.666Z,2.17
2019-05-14T21:08:43.121Z,2.47
2019-05-14T21:11:19.061Z,2.40
2019-05-14T21:13:50.310Z,2.83
2019-05-14T21:16:21.626Z,2.60
2019-05-14T21:18:52.744Z,1.70
2019-05-14T21:21:23.784Z,1.70
2019-05-14T21:23:58.486Z,2.33
2019-05-14T21:26:29.375Z,2.00
2019-05-14T21:29:00.449Z,2.20
2019-05-14T21:31:32.365Z,2.13
2019-05-14T21:34:05.041Z,2.03
2019-05-14T21:36:36.203Z,2.10
2019-05-14T21:39:10.514Z,2.47
2019-05-14T21:41:44.563Z,2.00
2019-05-14T21:44:18.806Z,2.50
2019-05-14T21:46:50.823Z,2.00
2019-05-14T21:49:21.973Z,2.03
2019-05-14T21:51:53.039Z,2.00
2019-05-14T21:54:24.153Z,2.37
2019-05-14T21:56:55.317Z,2.10
2019-05-14T21:59:28.079Z,2.33
2019-05-14T22:06:19.857Z,2.43
2019-05-14T22:08:50.930Z,2.33
2019-05-14T22:11:28.206Z,2.33
2019-05-14T22:13:59.443Z,2.47
2019-05-14T22:16:30.769Z,2.53
2019-05-14T22:19:01.804Z,2.20
2019-05-14T22:21:33.090Z,2.33
2019-05-14T22:24:05.841Z,2.20
2019-05-14T22:26:38.869Z,2.10
2019-05-14T22:29:10.017Z,2.10
2019-05-14T22:31:41.091Z,2.37
2019-05-14T22:34:12.115Z,1.97
2019-05-14T22:36:43.369Z,2.33
2019-05-14T22:39:19.794Z,2.00
2019-05-14T22:41:48.870Z,1.73
2019-05-14T22:44:21.478Z,2.40
2019-05-14T22:46:52.522Z,2.27
2019-05-14T22:49:23.591Z,1.97
2019-05-14T22:51:55.554Z,2.20
2019-05-14T22:54:29.168Z,2.20
2019-05-14T22:57:02.710Z,1.90
2019-05-14T22:59:33.853Z,2.00
2019-05-14T23:02:04.935Z,2.00
2019-05-14T23:04:38.459Z,2.30
2019-05-14T23:07:10.550Z,2.00
2019-05-14T23:09:41.641Z,2.13
2019-05-14T23:12:13.295Z,2.10
2019-05-14T23:14:44.376Z,1.90
2019-05-14T23:17:15.595Z,2.23
2019-05-14T23:19:49.772Z,2.40
2019-05-14T23:22:24.699Z,2.23
2019-05-14T23:24:59.206Z,1.90
2019-05-14T23:27:30.077Z,2.30
2019-05-14T23:30:01.978Z,1.97
2019-05-14T23:32:33.095Z,2.17
2019-05-14T23:35:05.647Z,2.30
2019-05-14T23:37:38.321Z,1.83
2019-05-14T23:40:09.430Z,2.07
2019-05-14T23:42:40.558Z,2.10
2019-05-14T23:45:11.698Z,3.20
2019-05-14T23:47:42.812Z,2.10
2019-05-14T23:50:19.714Z,2.10
2019-05-14T23:52:50.826Z,2.50
2019-05-14T23:55:21.828Z,2.43
2019-05-14T23:57:52.949Z,2.20
